sensor_id;sensor_type;location;lat;lon;timestamp;P1;durP1;ratioP1;P2;durP2;ratioP2
41177;SDS011;26912;54.292;18.574;2022-11-15T00:00:14;13.60;;;8.25;;
41177;SDS011;26912;54.292;18.574;2022-11-15T00:03:05;13.23;;;6.63;;
41177;SDS011;26912;54.292;18.574;2022-11-15T00:05:50;17.67;;;7.55;;
41177;SDS011;26912;54.292;18.574;2022-11-15T00:08:35;12.07;;;7.85;;
41177;SDS011;26912;54.292;18.574;2022-11-15T00:11:21;21.85;;;8.73;;
41177;SDS011;26912;54.292;18.574;2022-11-15T00:14:05;20.13;;;8.13;;
41177;SDS011;26912;54.292;18.574;2022-11-15T00:16:51;16.15;;;6.93;;
41177;SDS011;26912;54.292;18.574;2022-11-15T00:19:35;15.65;;;7.80;;
41177;SDS011;26912;54.292;18.574;2022-11-15T00:22:21;19.33;;;7.38;;
41177;SDS011;26912;54.292;18.574;2022-11-15T00:25:06;13.90;;;8.00;;
41177;SDS011;26912;54.292;18.574;2022-11-15T00:27:54;17.13;;;7.97;;
41177;SDS011;26912;54.292;18.574;2022-11-15T00:30:41;11.60;;;6.75;;
41177;SDS011;26912;54.292;18.574;2022-11-15T00:33:26;25.80;;;7.72;;
41177;SDS011;26912;54.292;18.574;2022-11-15T00:36:11;8.15;;;6.63;;
41177;SDS011;26912;54.292;18.574;2022-11-15T00:38:56;11.95;;;7.15;;
41177;SDS011;26912;54.292;18.574;2022-11-15T00:41:41;24.08;;;9.13;;
41177;SDS011;26912;54.292;18.574;2022-11-15T00:44:26;16.27;;;6.53;;
41177;SDS011;26912;54.292;18.574;2022-11-15T00:47:11;9.18;;;6.53;;
41177;SDS011;26912;54.292;18.574;2022-11-15T00:49:58;18.27;;;9.05;;
41177;SDS011;26912;54.292;18.574;2022-11-15T00:52:43;13.18;;;6.55;;
41177;SDS011;26912;54.292;18.574;2022-11-15T00:55:29;16.08;;;8.98;;
41177;SDS011;26912;54.292;18.574;2022-11-15T00:58:13;15.43;;;6.88;;
41177;SDS011;26912;54.292;18.574;2022-11-15T01:01:05;11.10;;;6.00;;
41177;SDS011;26912;54.292;18.574;2022-11-15T01:03:55;14.18;;;7.30;;
41177;SDS011;26912;54.292;18.574;2022-11-15T01:06:40;15.00;;;8.70;;
41177;SDS011;26912;54.292;18.574;2022-11-15T01:09:25;13.55;;;7.43;;
41177;SDS011;26912;54.292;18.574;2022-11-15T01:12:10;15.50;;;7.55;;
41177;SDS011;26912;54.292;18.574;2022-11-15T01:14:55;9.85;;;3.95;;
41177;SDS011;26912;54.292;18.574;2022-11-15T01:17:40;5.57;;;4.43;;
41177;SDS011;26912;54.292;18.574;2022-11-15T01:20:25;16.55;;;9.27;;
41177;SDS011;26912;54.292;18.574;2022-11-15T01:23:11;10.82;;;6.10;;
41177;SDS011;26912;54.292;18.574;2022-11-15T01:25:59;24.67;;;9.07;;
41177;SDS011;26912;54.292;18.574;2022-11-15T01:28:45;13.77;;;8.05;;
41177;SDS011;26912;54.292;18.574;2022-11-15T01:31:30;18.60;;;9.25;;
41177;SDS011;26912;54.292;18.574;2022-11-15T01:34:15;17.63;;;7.30;;
41177;SDS011;26912;54.292;18.574;2022-11-15T01:37:00;26.10;;;7.63;;
41177;SDS011;26912;54.292;18.574;2022-11-15T01:39:46;16.83;;;9.07;;
41177;SDS011;26912;54.292;18.574;2022-11-15T01:42:31;21.88;;;11.30;;
41177;SDS011;26912;54.292;18.574;2022-11-15T01:45:21;18.92;;;10.88;;
41177;SDS011;26912;54.292;18.574;2022-11-15T01:48:07;31.13;;;9.80;;
41177;SDS011;26912;54.292;18.574;2022-11-15T01:50:53;23.35;;;10.88;;
41177;SDS011;26912;54.292;18.574;2022-11-15T01:53:39;19.60;;;9.10;;
41177;SDS011;26912;54.292;18.574;2022-11-15T01:56:29;18.50;;;9.45;;
41177;SDS011;26912;54.292;18.574;2022-11-15T01:59:17;17.45;;;9.02;;
41177;SDS011;26912;54.292;18.574;2022-11-15T02:02:03;15.80;;;8.80;;
41177;SDS011;26912;54.292;18.574;2022-11-15T02:04:48;35.08;;;9.30;;
41177;SDS011;26912;54.292;18.574;2022-11-15T02:07:34;28.80;;;10.38;;
41177;SDS011;26912;54.292;18.574;2022-11-15T02:10:20;18.88;;;7.30;;
41177;SDS011;26912;54.292;18.574;2022-11-15T02:13:06;20.88;;;8.02;;
41177;SDS011;26912;54.292;18.574;2022-11-15T02:16:06;26.02;;;9.68;;
41177;SDS011;26912;54.292;18.574;2022-11-15T02:25:03;12.60;;;6.93;;
41177;SDS011;26912;54.292;18.574;2022-11-15T02:27:54;19.45;;;8.30;;
41177;SDS011;26912;54.292;18.574;2022-11-15T02:33:39;13.05;;;4.75;;
41177;SDS011;26912;54.292;18.574;2022-11-15T02:40:23;16.27;;;6.50;;
41177;SDS011;26912;54.292;18.574;2022-11-15T02:42:36;9.27;;;7.47;;
41177;SDS011;26912;54.292;18.574;2022-11-15T02:45:48;17.13;;;7.95;;
41177;SDS011;26912;54.292;18.574;2022-11-15T02:48:37;13.82;;;6.03;;
41177;SDS011;26912;54.292;18.574;2022-11-15T02:51:23;19.80;;;7.82;;
41177;SDS011;26912;54.292;18.574;2022-11-15T02:54:15;21.50;;;8.25;;
41177;SDS011;26912;54.292;18.574;2022-11-15T02:57:12;8.27;;;6.10;;
41177;SDS011;26912;54.292;18.574;2022-11-15T03:00:04;14.57;;;6.35;;
41177;SDS011;26912;54.292;18.574;2022-11-15T03:05:56;23.13;;;10.00;;
41177;SDS011;26912;54.292;18.574;2022-11-15T03:12:23;16.88;;;8.75;;
41177;SDS011;26912;54.292;18.574;2022-11-15T03:18:37;17.55;;;10.50;;
41177;SDS011;26912;54.292;18.574;2022-11-15T03:21:23;19.00;;;9.77;;
41177;SDS011;26912;54.292;18.574;2022-11-15T03:24:12;23.25;;;9.45;;
41177;SDS011;26912;54.292;18.574;2022-11-15T03:26:59;19.17;;;9.30;;
41177;SDS011;26912;54.292;18.574;2022-11-15T03:29:48;15.68;;;7.45;;
41177;SDS011;26912;54.292;18.574;2022-11-15T03:32:39;21.15;;;8.70;;
41177;SDS011;26912;54.292;18.574;2022-11-15T03:35:30;16.50;;;9.48;;
41177;SDS011;26912;54.292;18.574;2022-11-15T03:38:26;37.85;;;11.15;;
41177;SDS011;26912;54.292;18.574;2022-11-15T03:41:20;16.00;;;8.57;;
41177;SDS011;26912;54.292;18.574;2022-11-15T03:44:20;14.98;;;7.85;;
41177;SDS011;26912;54.292;18.574;2022-11-15T03:47:25;6.70;;;5.20;;
41177;SDS011;26912;54.292;18.574;2022-11-15T03:50:18;14.82;;;7.97;;
41177;SDS011;26912;54.292;18.574;2022-11-15T03:53:05;15.82;;;8.32;;
41177;SDS011;26912;54.292;18.574;2022-11-15T03:55:50;17.90;;;7.05;;
41177;SDS011;26912;54.292;18.574;2022-11-15T03:58:35;17.17;;;9.63;;
41177;SDS011;26912;54.292;18.574;2022-11-15T04:01:20;19.83;;;8.93;;
41177;SDS011;26912;54.292;18.574;2022-11-15T04:04:05;24.63;;;10.98;;
41177;SDS011;26912;54.292;18.574;2022-11-15T04:06:50;8.98;;;5.30;;
41177;SDS011;26912;54.292;18.574;2022-11-15T04:09:35;17.88;;;6.45;;
41177;SDS011;26912;54.292;18.574;2022-11-15T04:12:41;28.20;;;5.88;;
41177;SDS011;26912;54.292;18.574;2022-11-15T04:15:30;3.35;;;3.10;;
41177;SDS011;26912;54.292;18.574;2022-11-15T04:18:15;15.43;;;7.80;;
41177;SDS011;26912;54.292;18.574;2022-11-15T04:21:01;10.85;;;5.70;;
41177;SDS011;26912;54.292;18.574;2022-11-15T04:24:04;14.80;;;6.22;;
41177;SDS011;26912;54.292;18.574;2022-11-15T04:26:59;15.43;;;7.38;;
41177;SDS011;26912;54.292;18.574;2022-11-15T04:29:44;11.70;;;6.32;;
41177;SDS011;26912;54.292;18.574;2022-11-15T04:32:29;13.70;;;5.75;;
41177;SDS011;26912;54.292;18.574;2022-11-15T04:35:14;8.88;;;5.07;;
41177;SDS011;26912;54.292;18.574;2022-11-15T04:37:59;25.98;;;7.13;;
41177;SDS011;26912;54.292;18.574;2022-11-15T04:40:46;17.40;;;7.13;;
41177;SDS011;26912;54.292;18.574;2022-11-15T04:43:31;8.40;;;7.13;;
41177;SDS011;26912;54.292;18.574;2022-11-15T04:46:16;23.23;;;6.88;;
41177;SDS011;26912;54.292;18.574;2022-11-15T04:49:01;15.10;;;8.57;;
41177;SDS011;26912;54.292;18.574;2022-11-15T04:51:46;15.50;;;9.30;;
41177;SDS011;26912;54.292;18.574;2022-11-15T04:54:31;18.00;;;7.68;;
41177;SDS011;26912;54.292;18.574;2022-11-15T04:57:16;16.17;;;7.97;;
41177;SDS011;26912;54.292;18.574;2022-11-15T05:00:05;14.93;;;7.40;;
41177;SDS011;26912;54.292;18.574;2022-11-15T05:02:55;13.07;;;6.20;;
41177;SDS011;26912;54.292;18.574;2022-11-15T05:05:59;16.17;;;6.45;;
41177;SDS011;26912;54.292;18.574;2022-11-15T05:08:44;21.10;;;7.85;;
41177;SDS011;26912;54.292;18.574;2022-11-15T05:11:30;12.30;;;5.82;;
41177;SDS011;26912;54.292;18.574;2022-11-15T05:14:15;14.38;;;8.07;;
41177;SDS011;26912;54.292;18.574;2022-11-15T05:17:01;30.38;;;8.07;;
41177;SDS011;26912;54.292;18.574;2022-11-15T05:19:45;10.27;;;6.50;;
41177;SDS011;26912;54.292;18.574;2022-11-15T05:22:31;24.20;;;6.80;;
41177;SDS011;26912;54.292;18.574;2022-11-15T05:25:16;31.80;;;9.30;;
41177;SDS011;26912;54.292;18.574;2022-11-15T05:28:01;13.38;;;6.03;;
41177;SDS011;26912;54.292;18.574;2022-11-15T05:30:46;10.52;;;6.82;;
41177;SDS011;26912;54.292;18.574;2022-11-15T05:33:31;22.27;;;7.20;;
41177;SDS011;26912;54.292;18.574;2022-11-15T05:39:17;15.20;;;6.97;;
41177;SDS011;26912;54.292;18.574;2022-11-15T05:42:06;15.80;;;7.05;;
41177;SDS011;26912;54.292;18.574;2022-11-15T05:44:57;16.90;;;6.53;;
41177;SDS011;26912;54.292;18.574;2022-11-15T05:47:45;18.70;;;5.85;;
41177;SDS011;26912;54.292;18.574;2022-11-15T05:50:32;20.70;;;5.85;;
41177;SDS011;26912;54.292;18.574;2022-11-15T05:53:18;7.65;;;5.32;;
41177;SDS011;26912;54.292;18.574;2022-11-15T05:56:05;16.20;;;5.10;;
41177;SDS011;26912;54.292;18.574;2022-11-15T05:58:51;8.48;;;4.25;;
41177;SDS011;26912;54.292;18.574;2022-11-15T06:01:38;11.00;;;5.57;;
41177;SDS011;26912;54.292;18.574;2022-11-15T06:04:24;14.55;;;4.20;;
41177;SDS011;26912;54.292;18.574;2022-11-15T06:07:09;8.85;;;4.03;;
41177;SDS011;26912;54.292;18.574;2022-11-15T06:09:54;14.82;;;5.97;;
41177;SDS011;26912;54.292;18.574;2022-11-15T06:12:40;4.22;;;3.75;;
41177;SDS011;26912;54.292;18.574;2022-11-15T06:15:24;15.77;;;6.10;;
41177;SDS011;26912;54.292;18.574;2022-11-15T06:18:10;11.45;;;4.00;;
41177;SDS011;26912;54.292;18.574;2022-11-15T06:20:58;6.85;;;4.25;;
41177;SDS011;26912;54.292;18.574;2022-11-15T06:23:44;7.93;;;5.43;;
41177;SDS011;26912;54.292;18.574;2022-11-15T06:26:28;15.43;;;5.55;;
41177;SDS011;26912;54.292;18.574;2022-11-15T06:29:13;11.13;;;4.97;;
41177;SDS011;26912;54.292;18.574;2022-11-15T06:31:58;9.13;;;4.32;;
41177;SDS011;26912;54.292;18.574;2022-11-15T06:34:44;9.45;;;3.97;;
41177;SDS011;26912;54.292;18.574;2022-11-15T06:37:28;14.68;;;4.30;;
41177;SDS011;26912;54.292;18.574;2022-11-15T06:40:14;13.60;;;6.72;;
41177;SDS011;26912;54.292;18.574;2022-11-15T06:42:59;7.85;;;4.10;;
41177;SDS011;26912;54.292;18.574;2022-11-15T06:45:44;15.90;;;7.18;;
41177;SDS011;26912;54.292;18.574;2022-11-15T06:48:29;9.85;;;5.75;;
41177;SDS011;26912;54.292;18.574;2022-11-15T06:51:16;15.65;;;5.50;;
41177;SDS011;26912;54.292;18.574;2022-11-15T06:54:01;8.90;;;4.82;;
41177;SDS011;26912;54.292;18.574;2022-11-15T06:56:47;13.50;;;6.10;;
41177;SDS011;26912;54.292;18.574;2022-11-15T06:59:32;12.82;;;5.72;;
41177;SDS011;26912;54.292;18.574;2022-11-15T07:02:17;8.32;;;5.80;;
41177;SDS011;26912;54.292;18.574;2022-11-15T07:05:02;14.32;;;4.22;;
41177;SDS011;26912;54.292;18.574;2022-11-15T07:07:51;15.15;;;5.68;;
41177;SDS011;26912;54.292;18.574;2022-11-15T07:10:39;11.07;;;4.65;;
41177;SDS011;26912;54.292;18.574;2022-11-15T07:13:25;6.45;;;4.05;;
41177;SDS011;26912;54.292;18.574;2022-11-15T07:16:11;5.25;;;3.10;;
41177;SDS011;26912;54.292;18.574;2022-11-15T07:18:56;7.70;;;6.00;;
41177;SDS011;26912;54.292;18.574;2022-11-15T07:21:42;9.48;;;4.18;;
41177;SDS011;26912;54.292;18.574;2022-11-15T07:24:28;11.95;;;5.10;;
41177;SDS011;26912;54.292;18.574;2022-11-15T07:27:14;7.65;;;5.05;;
41177;SDS011;26912;54.292;18.574;2022-11-15T07:29:59;10.35;;;5.10;;
41177;SDS011;26912;54.292;18.574;2022-11-15T07:32:44;13.93;;;5.63;;
41177;SDS011;26912;54.292;18.574;2022-11-15T07:35:31;12.68;;;5.43;;
41177;SDS011;26912;54.292;18.574;2022-11-15T07:38:16;5.72;;;3.70;;
41177;SDS011;26912;54.292;18.574;2022-11-15T07:41:05;11.57;;;5.10;;
41177;SDS011;26912;54.292;18.574;2022-11-15T07:43:52;8.02;;;4.68;;
41177;SDS011;26912;54.292;18.574;2022-11-15T07:46:37;7.88;;;4.22;;
41177;SDS011;26912;54.292;18.574;2022-11-15T07:49:22;6.55;;;4.07;;
41177;SDS011;26912;54.292;18.574;2022-11-15T07:52:07;9.43;;;5.30;;
41177;SDS011;26912;54.292;18.574;2022-11-15T07:54:52;11.55;;;4.30;;
41177;SDS011;26912;54.292;18.574;2022-11-15T07:57:37;11.07;;;5.88;;
41177;SDS011;26912;54.292;18.574;2022-11-15T08:00:22;8.48;;;4.40;;
41177;SDS011;26912;54.292;18.574;2022-11-15T08:03:08;8.63;;;4.47;;
41177;SDS011;26912;54.292;18.574;2022-11-15T08:05:54;9.10;;;3.42;;
41177;SDS011;26912;54.292;18.574;2022-11-15T08:08:39;10.23;;;5.28;;
41177;SDS011;26912;54.292;18.574;2022-11-15T08:11:24;4.68;;;3.28;;
41177;SDS011;26912;54.292;18.574;2022-11-15T08:14:09;9.10;;;4.80;;
41177;SDS011;26912;54.292;18.574;2022-11-15T08:16:54;9.00;;;3.72;;
41177;SDS011;26912;54.292;18.574;2022-11-15T08:19:39;12.68;;;4.80;;
41177;SDS011;26912;54.292;18.574;2022-11-15T08:22:24;8.38;;;3.38;;
41177;SDS011;26912;54.292;18.574;2022-11-15T08:25:10;15.80;;;5.47;;
41177;SDS011;26912;54.292;18.574;2022-11-15T08:27:55;22.52;;;6.13;;
41177;SDS011;26912;54.292;18.574;2022-11-15T08:30:42;8.10;;;4.45;;
41177;SDS011;26912;54.292;18.574;2022-11-15T08:33:32;7.50;;;4.35;;
41177;SDS011;26912;54.292;18.574;2022-11-15T08:36:18;10.18;;;5.63;;
41177;SDS011;26912;54.292;18.574;2022-11-15T08:39:03;7.85;;;4.45;;
41177;SDS011;26912;54.292;18.574;2022-11-15T08:41:49;12.75;;;3.75;;
41177;SDS011;26912;54.292;18.574;2022-11-15T08:44:34;10.45;;;6.20;;
41177;SDS011;26912;54.292;18.574;2022-11-15T08:47:19;8.52;;;4.72;;
41177;SDS011;26912;54.292;18.574;2022-11-15T08:50:04;10.48;;;5.13;;
41177;SDS011;26912;54.292;18.574;2022-11-15T08:52:50;7.30;;;3.75;;
41177;SDS011;26912;54.292;18.574;2022-11-15T08:55:37;5.05;;;3.58;;
41177;SDS011;26912;54.292;18.574;2022-11-15T08:58:24;11.45;;;5.43;;
41177;SDS011;26912;54.292;18.574;2022-11-15T09:01:14;11.73;;;4.63;;
41177;SDS011;26912;54.292;18.574;2022-11-15T09:06:48;12.38;;;6.43;;
41177;SDS011;26912;54.292;18.574;2022-11-15T09:09:33;6.75;;;3.35;;
41177;SDS011;26912;54.292;18.574;2022-11-15T09:12:18;9.05;;;4.75;;
41177;SDS011;26912;54.292;18.574;2022-11-15T09:15:04;15.00;;;5.55;;
41177;SDS011;26912;54.292;18.574;2022-11-15T09:17:50;7.32;;;3.95;;
41177;SDS011;26912;54.292;18.574;2022-11-15T09:20:35;9.48;;;4.28;;
41177;SDS011;26912;54.292;18.574;2022-11-15T09:23:20;8.45;;;4.75;;
41177;SDS011;26912;54.292;18.574;2022-11-15T09:26:05;6.72;;;3.83;;
41177;SDS011;26912;54.292;18.574;2022-11-15T09:28:52;7.25;;;4.13;;
41177;SDS011;26912;54.292;18.574;2022-11-15T09:31:38;6.90;;;5.25;;
41177;SDS011;26912;54.292;18.574;2022-11-15T09:34:22;6.60;;;4.50;;
41177;SDS011;26912;54.292;18.574;2022-11-15T09:37:07;4.88;;;4.20;;
41177;SDS011;26912;54.292;18.574;2022-11-15T09:39:52;7.40;;;3.90;;
41177;SDS011;26912;54.292;18.574;2022-11-15T09:51:53;11.27;;;3.33;;
41177;SDS011;26912;54.292;18.574;2022-11-15T09:56:49;8.32;;;3.72;;
41177;SDS011;26912;54.292;18.574;2022-11-15T10:04:57;9.63;;;5.05;;
41177;SDS011;26912;54.292;18.574;2022-11-15T10:07:27;10.48;;;3.60;;
41177;SDS011;26912;54.292;18.574;2022-11-15T10:12:53;9.77;;;4.40;;
41177;SDS011;26912;54.292;18.574;2022-11-15T10:15:21;5.55;;;3.30;;
41177;SDS011;26912;54.292;18.574;2022-11-15T10:20:42;9.40;;;5.28;;
41177;SDS011;26912;54.292;18.574;2022-11-15T10:23:13;6.30;;;4.40;;
41177;SDS011;26912;54.292;18.574;2022-11-15T10:25:42;10.70;;;4.75;;
41177;SDS011;26912;54.292;18.574;2022-11-15T10:30:44;6.35;;;2.95;;
41177;SDS011;26912;54.292;18.574;2022-11-15T10:33:24;6.93;;;3.92;;
41177;SDS011;26912;54.292;18.574;2022-11-15T10:41:17;11.60;;;5.53;;
41177;SDS011;26912;54.292;18.574;2022-11-15T10:46:36;8.05;;;5.15;;
41177;SDS011;26912;54.292;18.574;2022-11-15T10:49:16;9.15;;;5.57;;
41177;SDS011;26912;54.292;18.574;2022-11-15T10:51:48;7.00;;;5.32;;
41177;SDS011;26912;54.292;18.574;2022-11-15T10:56:51;6.07;;;4.30;;
41177;SDS011;26912;54.292;18.574;2022-11-15T10:59:24;9.32;;;5.78;;
41177;SDS011;26912;54.292;18.574;2022-11-15T11:01:54;9.18;;;5.40;;
41177;SDS011;26912;54.292;18.574;2022-11-15T11:04:21;7.93;;;4.68;;
41177;SDS011;26912;54.292;18.574;2022-11-15T11:06:58;6.25;;;4.00;;
41177;SDS011;26912;54.292;18.574;2022-11-15T11:12:00;11.05;;;5.68;;
41177;SDS011;26912;54.292;18.574;2022-11-15T11:14:28;8.43;;;3.13;;
41177;SDS011;26912;54.292;18.574;2022-11-15T11:25:38;22.95;;;10.57;;
41177;SDS011;26912;54.292;18.574;2022-11-15T11:28:25;27.15;;;12.48;;
41177;SDS011;26912;54.292;18.574;2022-11-15T11:49:49;8.90;;;4.57;;
41177;SDS011;26912;54.292;18.574;2022-11-15T11:52:27;7.18;;;4.75;;
41177;SDS011;26912;54.292;18.574;2022-11-15T12:00:17;6.18;;;4.35;;
41177;SDS011;26912;54.292;18.574;2022-11-15T12:06:09;7.93;;;5.13;;
41177;SDS011;26912;54.292;18.574;2022-11-15T12:08:50;10.63;;;6.07;;
41177;SDS011;26912;54.292;18.574;2022-11-15T12:12:04;13.20;;;7.10;;
41177;SDS011;26912;54.292;18.574;2022-11-15T12:14:44;10.60;;;5.97;;
41177;SDS011;26912;54.292;18.574;2022-11-15T12:17:14;18.70;;;8.60;;
41177;SDS011;26912;54.292;18.574;2022-11-15T12:19:45;11.30;;;6.28;;
41177;SDS011;26912;54.292;18.574;2022-11-15T12:22:13;10.63;;;5.95;;
41177;SDS011;26912;54.292;18.574;2022-11-15T12:25:01;12.90;;;6.60;;
41177;SDS011;26912;54.292;18.574;2022-11-15T12:30:14;14.05;;;6.88;;
41177;SDS011;26912;54.292;18.574;2022-11-15T12:32:51;13.13;;;7.78;;
41177;SDS011;26912;54.292;18.574;2022-11-15T12:35:24;12.43;;;6.97;;
41177;SDS011;26912;54.292;18.574;2022-11-15T12:38:09;12.75;;;6.35;;
41177;SDS011;26912;54.292;18.574;2022-11-15T12:40:37;7.57;;;5.50;;
41177;SDS011;26912;54.292;18.574;2022-11-15T12:43:38;15.93;;;7.45;;
41177;SDS011;26912;54.292;18.574;2022-11-15T12:46:09;14.18;;;7.25;;
41177;SDS011;26912;54.292;18.574;2022-11-15T12:51:05;11.43;;;6.35;;
41177;SDS011;26912;54.292;18.574;2022-11-15T12:53:32;15.23;;;5.60;;
41177;SDS011;26912;54.292;18.574;2022-11-15T13:06:47;9.50;;;5.25;;
41177;SDS011;26912;54.292;18.574;2022-11-15T13:12:11;12.43;;;8.10;;
41177;SDS011;26912;54.292;18.574;2022-11-15T13:17:36;7.95;;;6.68;;
41177;SDS011;26912;54.292;18.574;2022-11-15T13:22:45;11.32;;;5.18;;
41177;SDS011;26912;54.292;18.574;2022-11-15T13:28:17;9.00;;;5.63;;
41177;SDS011;26912;54.292;18.574;2022-11-15T13:30:52;9.25;;;5.00;;
41177;SDS011;26912;54.292;18.574;2022-11-15T13:33:21;15.82;;;7.47;;
41177;SDS011;26912;54.292;18.574;2022-11-15T13:35:54;18.33;;;4.97;;
41177;SDS011;26912;54.292;18.574;2022-11-15T13:38:27;14.75;;;7.97;;
41177;SDS011;26912;54.292;18.574;2022-11-15T13:40:56;11.35;;;5.55;;
41177;SDS011;26912;54.292;18.574;2022-11-15T13:43:28;23.00;;;6.57;;
41177;SDS011;26912;54.292;18.574;2022-11-15T13:51:23;16.65;;;7.95;;
41177;SDS011;26912;54.292;18.574;2022-11-15T13:54:10;9.60;;;5.82;;
41177;SDS011;26912;54.292;18.574;2022-11-15T13:56:56;14.88;;;5.90;;
41177;SDS011;26912;54.292;18.574;2022-11-15T13:59:27;12.13;;;6.15;;
41177;SDS011;26912;54.292;18.574;2022-11-15T14:01:57;16.60;;;6.65;;
41177;SDS011;26912;54.292;18.574;2022-11-15T14:04:27;12.85;;;5.60;;
41177;SDS011;26912;54.292;18.574;2022-11-15T14:06:56;8.90;;;4.47;;
41177;SDS011;26912;54.292;18.574;2022-11-15T14:09:29;6.03;;;3.97;;
41177;SDS011;26912;54.292;18.574;2022-11-15T14:14:53;8.88;;;5.03;;
41177;SDS011;26912;54.292;18.574;2022-11-15T14:17:21;12.80;;;4.30;;
41177;SDS011;26912;54.292;18.574;2022-11-15T14:20:00;17.45;;;4.97;;
41177;SDS011;26912;54.292;18.574;2022-11-15T14:22:29;12.45;;;6.25;;
41177;SDS011;26912;54.292;18.574;2022-11-15T14:27:39;7.23;;;5.20;;
41177;SDS011;26912;54.292;18.574;2022-11-15T14:30:12;15.40;;;4.82;;
41177;SDS011;26912;54.292;18.574;2022-11-15T14:35:15;5.22;;;3.53;;
41177;SDS011;26912;54.292;18.574;2022-11-15T14:37:48;10.02;;;5.18;;
41177;SDS011;26912;54.292;18.574;2022-11-15T14:40:17;10.82;;;5.50;;
41177;SDS011;26912;54.292;18.574;2022-11-15T14:42:48;9.45;;;5.88;;
41177;SDS011;26912;54.292;18.574;2022-11-15T14:45:17;7.15;;;5.13;;
41177;SDS011;26912;54.292;18.574;2022-11-15T14:47:46;5.68;;;4.25;;
41177;SDS011;26912;54.292;18.574;2022-11-15T14:50:16;5.70;;;5.15;;
41177;SDS011;26912;54.292;18.574;2022-11-15T14:52:45;8.80;;;3.78;;
41177;SDS011;26912;54.292;18.574;2022-11-15T14:55:21;13.40;;;4.05;;
41177;SDS011;26912;54.292;18.574;2022-11-15T14:58:02;5.95;;;3.72;;
41177;SDS011;26912;54.292;18.574;2022-11-15T15:00:30;5.55;;;2.97;;
41177;SDS011;26912;54.292;18.574;2022-11-15T15:02:58;15.00;;;4.38;;
41177;SDS011;26912;54.292;18.574;2022-11-15T15:05:27;8.95;;;4.53;;
41177;SDS011;26912;54.292;18.574;2022-11-15T15:07:56;12.43;;;5.82;;
41177;SDS011;26912;54.292;18.574;2022-11-15T15:10:30;7.32;;;4.38;;
41177;SDS011;26912;54.292;18.574;2022-11-15T15:13:02;8.75;;;4.18;;
41177;SDS011;26912;54.292;18.574;2022-11-15T15:15:33;12.23;;;5.57;;
41177;SDS011;26912;54.292;18.574;2022-11-15T15:18:04;14.30;;;5.63;;
41177;SDS011;26912;54.292;18.574;2022-11-15T15:20:34;10.15;;;4.57;;
41177;SDS011;26912;54.292;18.574;2022-11-15T15:23:10;7.97;;;4.10;;
41177;SDS011;26912;54.292;18.574;2022-11-15T15:25:42;8.52;;;5.50;;
41177;SDS011;26912;54.292;18.574;2022-11-15T15:28:12;8.32;;;3.97;;
41177;SDS011;26912;54.292;18.574;2022-11-15T15:30:39;8.18;;;4.28;;
41177;SDS011;26912;54.292;18.574;2022-11-15T15:33:06;15.35;;;3.35;;
41177;SDS011;26912;54.292;18.574;2022-11-15T15:35:33;11.07;;;4.40;;
41177;SDS011;26912;54.292;18.574;2022-11-15T15:38:01;8.95;;;3.88;;
41177;SDS011;26912;54.292;18.574;2022-11-15T15:40:29;9.05;;;5.90;;
41177;SDS011;26912;54.292;18.574;2022-11-15T15:42:58;4.90;;;3.10;;
41177;SDS011;26912;54.292;18.574;2022-11-15T15:45:26;3.72;;;2.75;;
41177;SDS011;26912;54.292;18.574;2022-11-15T15:47:54;7.53;;;3.50;;
41177;SDS011;26912;54.292;18.574;2022-11-15T15:50:22;4.93;;;4.07;;
41177;SDS011;26912;54.292;18.574;2022-11-15T15:52:55;6.15;;;3.75;;
41177;SDS011;26912;54.292;18.574;2022-11-15T15:55:24;8.75;;;3.75;;
41177;SDS011;26912;54.292;18.574;2022-11-15T15:57:52;6.18;;;3.45;;
41177;SDS011;26912;54.292;18.574;2022-11-15T16:00:22;8.13;;;4.35;;
41177;SDS011;26912;54.292;18.574;2022-11-15T16:02:51;13.40;;;5.45;;
41177;SDS011;26912;54.292;18.574;2022-11-15T16:05:18;4.15;;;3.00;;
41177;SDS011;26912;54.292;18.574;2022-11-15T16:07:46;9.40;;;3.72;;
41177;SDS011;26912;54.292;18.574;2022-11-15T16:10:29;6.70;;;3.28;;
41177;SDS011;26912;54.292;18.574;2022-11-15T16:13:00;8.52;;;4.18;;
41177;SDS011;26912;54.292;18.574;2022-11-15T16:15:28;6.95;;;4.70;;
41177;SDS011;26912;54.292;18.574;2022-11-15T16:17:58;6.75;;;4.40;;
41177;SDS011;26912;54.292;18.574;2022-11-15T16:23:00;6.47;;;4.50;;
41177;SDS011;26912;54.292;18.574;2022-11-15T16:25:27;8.77;;;4.78;;
41177;SDS011;26912;54.292;18.574;2022-11-15T16:27:56;6.20;;;4.05;;
41177;SDS011;26912;54.292;18.574;2022-11-15T16:30:25;8.52;;;3.42;;
41177;SDS011;26912;54.292;18.574;2022-11-15T16:32:53;9.00;;;3.80;;
41177;SDS011;26912;54.292;18.574;2022-11-15T16:35:20;5.30;;;3.85;;
41177;SDS011;26912;54.292;18.574;2022-11-15T16:37:54;5.15;;;3.63;;
41177;SDS011;26912;54.292;18.574;2022-11-15T16:40:30;8.65;;;5.65;;
41177;SDS011;26912;54.292;18.574;2022-11-15T16:42:58;12.90;;;6.78;;
41177;SDS011;26912;54.292;18.574;2022-11-15T16:45:27;7.38;;;4.50;;
41177;SDS011;26912;54.292;18.574;2022-11-15T16:47:57;11.63;;;4.35;;
41177;SDS011;26912;54.292;18.574;2022-11-15T16:50:25;13.25;;;6.20;;
41177;SDS011;26912;54.292;18.574;2022-11-15T16:53:04;14.10;;;5.22;;
41177;SDS011;26912;54.292;18.574;2022-11-15T16:55:31;17.75;;;6.30;;
41177;SDS011;26912;54.292;18.574;2022-11-15T16:58:01;8.10;;;4.43;;
41177;SDS011;26912;54.292;18.574;2022-11-15T17:00:28;21.08;;;7.57;;
41177;SDS011;26912;54.292;18.574;2022-11-15T17:02:57;12.68;;;5.53;;
41177;SDS011;26912;54.292;18.574;2022-11-15T17:05:28;17.25;;;6.68;;
41177;SDS011;26912;54.292;18.574;2022-11-15T17:07:56;15.10;;;7.13;;
41177;SDS011;26912;54.292;18.574;2022-11-15T17:10:34;14.23;;;6.82;;
41177;SDS011;26912;54.292;18.574;2022-11-15T17:13:10;10.77;;;6.35;;
41177;SDS011;26912;54.292;18.574;2022-11-15T17:15:48;10.18;;;6.85;;
41177;SDS011;26912;54.292;18.574;2022-11-15T17:18:16;11.25;;;5.00;;
41177;SDS011;26912;54.292;18.574;2022-11-15T17:20:48;7.53;;;4.20;;
41177;SDS011;26912;54.292;18.574;2022-11-15T17:23:19;8.02;;;3.33;;
41177;SDS011;26912;54.292;18.574;2022-11-15T17:25:57;7.75;;;4.95;;
41177;SDS011;26912;54.292;18.574;2022-11-15T17:28:32;12.40;;;6.88;;
41177;SDS011;26912;54.292;18.574;2022-11-15T17:31:00;6.50;;;3.63;;
41177;SDS011;26912;54.292;18.574;2022-11-15T17:33:35;14.45;;;6.45;;
41177;SDS011;26912;54.292;18.574;2022-11-15T17:36:05;11.07;;;5.30;;
41177;SDS011;26912;54.292;18.574;2022-11-15T17:38:36;11.73;;;5.03;;
41177;SDS011;26912;54.292;18.574;2022-11-15T17:41:05;9.10;;;4.28;;
41177;SDS011;26912;54.292;18.574;2022-11-15T17:43:36;8.13;;;4.38;;
41177;SDS011;26912;54.292;18.574;2022-11-15T17:46:05;13.73;;;4.32;;
41177;SDS011;26912;54.292;18.574;2022-11-15T17:48:33;14.80;;;7.18;;
41177;SDS011;26912;54.292;18.574;2022-11-15T17:51:04;14.70;;;5.88;;
41177;SDS011;26912;54.292;18.574;2022-11-15T17:56:03;9.43;;;5.18;;
41177;SDS011;26912;54.292;18.574;2022-11-15T17:58:33;7.00;;;3.75;;
41177;SDS011;26912;54.292;18.574;2022-11-15T18:03:43;13.20;;;5.47;;
41177;SDS011;26912;54.292;18.574;2022-11-15T18:06:09;12.57;;;6.13;;
41177;SDS011;26912;54.292;18.574;2022-11-15T18:08:41;8.85;;;6.90;;
41177;SDS011;26912;54.292;18.574;2022-11-15T18:11:10;8.70;;;5.55;;
41177;SDS011;26912;54.292;18.574;2022-11-15T18:13:47;8.00;;;4.53;;